Time;durP1;ratioP1;P1;durP2;ratioP2;P2;SDS_P1;SDS_P2;PMS_P1;PMS_P2;Temp;Humidity;BMP_temperature;BMP_pressure;BME280_temperature;BME280_humidity;BME280_pressure;Samples;Min_cycle;Max_cycle;Signal;HPM_P1;HPM_P2
2023/03/09 00:01:50;;;;;;;45.70;28.50;;;;;;;3.32;74.31;98416.17;106780;1255;72691;-75
2023/03/09 00:04:19;;;;;;;41.70;29.00;;;;;;;3.32;74.28;98413.73;106070;1253;60473;-75
2023/03/09 00:06:51;;;;;;;34.00;24.30;;;;;;;3.30;74.46;98410.10;106017;1253;60798;-73
2023/03/09 00:09:19;;;;;;;31.00;22.30;;;;;;;3.29;74.52;98403.55;105966;1259;73748;-75
2023/03/09 00:11:48;;;;;;;33.50;22.60;;;;;;;3.30;74.84;98389.65;105951;1256;70474;-73
2023/03/09 00:14:24;;;;;;;35.60;23.50;;;;;;;3.41;74.93;98376.27;106233;1254;73351;-76
2023/03/09 00:16:52;;;;;;;34.20;23.90;;;;;;;3.48;74.49;98368.23;106107;1253;60408;-74
2023/03/09 00:19:26;;;;;;;34.20;22.70;;;;;;;3.47;74.54;98359.06;106072;1254;60303;-75
2023/03/09 00:21:55;;;;;;;32.70;22.80;;;;;;;3.46;74.59;98355.11;105992;1254;75128;-74
2023/03/09 00:24:28;;;;;;;33.20;22.70;;;;;;;3.45;74.45;98349.98;105828;1260;70173;-76
2023/03/09 00:27:00;;;;;;;34.30;24.70;;;;;;;3.44;74.65;98340.27;105735;1257;73896;-76
2023/03/09 00:29:29;;;;;;;28.50;20.40;;;;;;;3.44;74.71;98330.84;105667;1253;60992;-74
2023/03/09 00:31:58;;;;;;;28.00;20.90;;;;;;;3.54;74.77;98322.10;105711;1254;60428;-74
2023/03/09 00:34:26;;;;;;;24.50;19.10;;;;;;;3.63;74.76;98312.09;106007;1257;73848;-73
2023/03/09 00:36:54;;;;;;;27.10;20.00;;;;;;;3.64;75.10;98303.73;105934;1260;70931;-74
2023/03/09 00:39:23;;;;;;;23.80;18.20;;;;;;;3.63;75.24;98291.27;105786;1254;70596;-75
2023/03/09 00:41:52;;;;;;;24.40;18.40;;;;;;;3.62;75.56;98278.23;105856;1257;60545;-74
2023/03/09 00:44:23;;;;;;;24.70;19.80;;;;;;;3.61;75.87;98269.96;105895;1253;61885;-73
2023/03/09 00:46:51;;;;;;;21.80;15.80;;;;;;;3.65;76.26;98265.64;105546;1257;74868;-73
2023/03/09 00:49:19;;;;;;;21.70;15.60;;;;;;;3.77;76.28;98260.75;105701;1253;70981;-74
2023/03/09 00:51:47;;;;;;;23.40;16.70;;;;;;;3.80;76.48;98253.30;105894;1258;73526;-74
2023/03/09 00:54:16;;;;;;;22.30;17.50;;;;;;;3.77;76.65;98252.84;105927;1254;61110;-73
2023/03/09 00:56:44;;;;;;;21.10;17.30;;;;;;;3.75;76.66;98244.30;106172;1259;60408;-73
2023/03/09 00:59:13;;;;;;;21.20;17.00;;;;;;;3.74;76.88;98249.95;105751;1259;73807;-75
2023/03/09 01:01:41;;;;;;;20.70;16.80;;;;;;;3.82;77.15;98248.30;105671;1260;69870;-73
2023/03/09 01:04:13;;;;;;;22.70;17.20;;;;;;;3.90;76.74;98243.73;105654;1254;72266;-74
2023/03/09 01:06:42;;;;;;;20.70;16.20;;;;;;;3.90;77.10;98232.75;105924;1253;61169;-73
2023/03/09 01:09:10;;;;;;;24.40;18.00;;;;;;;3.88;76.86;98231.41;105816;1254;61012;-72
2023/03/09 01:11:45;;;;;;;22.00;16.90;;;;;;;3.84;76.97;98228.26;105854;1254;75063;-73
2023/03/09 01:14:14;;;;;;;19.30;16.10;;;;;;;3.87;77.35;98230.42;105948;1254;69365;-72
2023/03/09 01:16:42;;;;;;;19.40;16.00;;;;;;;3.97;76.98;98225.73;105919;1257;71705;-71
2023/03/09 01:19:11;;;;;;;23.80;17.20;;;;;;;3.98;77.08;98231.95;105786;1253;60662;-73
2023/03/09 01:21:40;;;;;;;22.90;16.30;;;;;;;3.95;77.12;98227.14;105919;1259;60510;-72
2023/03/09 01:24:09;;;;;;;23.50;17.60;;;;;;;3.92;77.44;98226.26;105905;1259;73342;-72
2023/03/09 01:26:38;;;;;;;23.80;17.40;;;;;;;3.90;77.82;98229.38;105855;1253;69575;-71
2023/03/09 01:29:06;;;;;;;20.20;15.90;;;;;;;3.99;77.96;98226.17;105744;1259;72565;-74
2023/03/09 01:31:35;;;;;;;19.10;14.80;;;;;;;4.05;77.81;98217.63;105769;1258;60429;-74
2023/03/09 01:34:04;;;;;;;20.40;15.60;;;;;;;4.04;77.84;98206.42;106024;1254;60556;-71
2023/03/09 01:36:34;;;;;;;19.70;14.10;;;;;;;4.01;78.09;98187.83;105574;1259;74078;-75
2023/03/09 01:39:03;;;;;;;19.90;14.20;;;;;;;3.96;78.47;98193.71;105838;1254;71488;-72
2023/03/09 01:41:31;;;;;;;19.00;14.20;;;;;;;4.01;78.53;98174.83;105649;1258;72631;-73
2023/03/09 01:43:59;;;;;;;20.10;15.20;;;;;;;4.09;78.14;98172.42;105998;1260;60409;-74
2023/03/09 01:46:29;;;;;;;16.40;13.90;;;;;;;4.07;78.31;98182.25;105892;1254;60441;-71
2023/03/09 01:49:03;;;;;;;20.70;15.20;;;;;;;4.01;78.57;98180.02;105540;1256;72942;-72
2023/03/09 01:51:49;;;;;;;16.80;14.00;;;;;;;3.96;78.70;98185.66;106151;1253;70655;-72
2023/03/09 01:54:25;;;;;;;18.60;14.20;;;;;;;3.97;78.80;98195.09;105908;1257;70602;-71
2023/03/09 01:56:56;;;;;;;15.60;13.00;;;;;;;4.06;78.66;98193.05;105964;1253;60516;-73
2023/03/09 01:59:28;;;;;;;17.80;13.70;;;;;;;4.07;78.73;98184.35;105874;1254;61005;-72
2023/03/09 02:01:56;;;;;;;16.60;14.00;;;;;;;4.05;78.68;98185.98;105594;1259;73551;-72
2023/03/09 02:04:31;;;;;;;18.90;13.60;;;;;;;4.03;78.70;98182.02;105749;1259;70046;-71
2023/03/09 02:07:00;;;;;;;19.60;13.20;;;;;;;4.01;78.77;98188.49;105554;1254;72725;-71
2023/03/09 02:09:38;;;;;;;16.90;13.20;;;;;;;4.11;78.48;98183.54;105658;1254;60473;-71
2023/03/09 02:12:11;;;;;;;18.00;13.10;;;;;;;4.17;78.06;98182.81;105762;1254;61053;-71
2023/03/09 02:14:40;;;;;;;17.60;13.50;;;;;;;4.13;78.17;98184.16;105499;1259;73562;-72
2023/03/09 02:17:13;;;;;;;17.10;13.00;;;;;;;4.10;78.30;98191.68;105562;1257;69374;-72
2023/03/09 02:20:07;;;;;;;19.50;13.60;;;;;;;4.09;78.18;98183.80;105963;1253;72113;-71
2023/03/09 02:22:36;;;;;;;20.20;13.50;;;;;;;4.15;78.08;98186.65;105820;1259;60526;-72
2023/03/09 02:25:34;;;;;;;16.00;12.90;;;;;;;4.20;77.65;98190.13;105722;1258;60205;-71
2023/03/09 02:28:03;;;;;;;18.30;13.70;;;;;;;4.18;77.71;98182.88;105515;1262;75032;-72
2023/03/09 02:30:34;;;;;;;17.10;12.90;;;;;;;4.15;77.88;98179.59;105728;1259;69342;-72
2023/03/09 02:33:07;;;;;;;17.40;12.50;;;;;;;4.16;77.80;98180.40;105634;1261;72718;-71
2023/03/09 02:35:38;;;;;;;15.30;11.80;;;;;;;4.24;77.32;98174.45;105868;1260;60542;-72
2023/03/09 02:38:11;;;;;;;15.50;11.80;;;;;;;4.30;77.34;98174.27;105630;1262;60478;-71
2023/03/09 02:40:39;;;;;;;16.90;12.30;;;;;;;4.29;77.37;98173.17;105863;1254;73140;-73
2023/03/09 02:43:15;;;;;;;15.00;11.90;;;;;;;4.28;77.33;98178.36;106061;1253;70261;-73
2023/03/09 02:45:44;;;;;;;15.70;11.50;;;;;;;4.28;77.33;98171.04;106055;1259;73378;-75
2023/03/09 02:48:12;;;;;;;14.70;11.60;;;;;;;4.37;77.26;98178.80;106215;1257;60415;-77
2023/03/09 02:50:41;;;;;;;14.60;11.80;;;;;;;4.43;77.00;98172.39;105891;1258;61464;-71
2023/03/09 02:53:09;;;;;;;16.30;12.00;;;;;;;4.41;77.27;98178.56;105892;1260;74110;-72
2023/03/09 02:55:37;;;;;;;17.10;12.30;;;;;;;4.37;77.30;98168.73;105889;1254;69948;-73
2023/03/09 02:58:07;;;;;;;15.30;11.30;;;;;;;4.36;77.21;98167.70;105847;1260;73396;-72
2023/03/09 03:00:36;;;;;;;15.00;12.50;;;;;;;4.44;77.01;98176.95;105700;1260;60517;-72
2023/03/09 03:03:04;;;;;;;17.00;12.30;;;;;;;4.46;77.11;98179.42;105887;1260;60341;-72
2023/03/09 03:08:35;;;;;;;15.10;11.80;;;;;;;4.37;77.30;98182.82;102913;1293;600539;-73
2023/03/09 03:11:08;;;;;;;14.70;11.80;;;;;;;4.35;77.49;98187.86;105622;1259;60235;-72
2023/03/09 03:13:37;;;;;;;15.30;12.20;;;;;;;4.44;77.16;98177.13;106390;1260;59685;-74
2023/03/09 03:16:08;;;;;;;15.10;11.60;;;;;;;4.45;76.84;98172.75;106105;1259;72382;-71
2023/03/09 03:18:37;;;;;;;15.80;12.00;;;;;;;4.41;76.86;98166.71;105779;1260;71408;-73
2023/03/09 03:21:05;;;;;;;15.80;12.20;;;;;;;4.35;77.16;98182.48;105401;1259;192172;-72
2023/03/09 03:23:35;;;;;;;15.20;11.30;;;;;;;4.40;76.90;98184.63;105695;1259;59231;-73
2023/03/09 03:26:05;;;;;;;14.50;11.40;;;;;;;4.46;76.82;98183.98;105712;1256;60257;-71
2023/03/09 03:28:36;;;;;;;15.30;11.10;;;;;;;4.42;76.97;98183.53;105534;1257;72352;-73
2023/03/09 03:31:09;;;;;;;18.70;12.40;;;;;;;4.35;77.31;98175.56;105523;1256;69490;-72
2023/03/09 03:33:38;;;;;;;15.60;12.10;;;;;;;4.31;77.12;98167.91;105789;1256;72003;-72
2023/03/09 03:36:07;;;;;;;14.80;11.40;;;;;;;4.38;77.26;98168.75;105667;1257;60704;-71
2023/03/09 03:38:38;;;;;;;17.70;12.20;;;;;;;4.41;77.28;98164.24;105647;1257;61503;-71
2023/03/09 03:41:07;;;;;;;17.90;13.10;;;;;;;4.37;77.30;98160.98;105632;1256;72460;-74
2023/03/09 03:43:38;;;;;;;15.70;12.40;;;;;;;4.31;77.72;98156.34;105651;1256;69667;-72
2023/03/09 03:46:06;;;;;;;15.20;11.70;;;;;;;4.26;77.84;98167.91;105638;1256;70543;-70
2023/03/09 03:48:37;;;;;;;16.40;12.00;;;;;;;4.27;77.91;98175.38;105600;1256;61239;-71
2023/03/09 03:51:05;;;;;;;14.00;11.50;;;;;;;4.36;77.51;98177.59;105692;1261;60253;-73
2023/03/09 03:53:40;;;;;;;15.90;11.20;;;;;;;4.33;77.63;98161.13;105675;1261;73230;-73
2023/03/09 03:56:09;;;;;;;14.90;11.30;;;;;;;4.27;77.70;98159.04;105861;1256;69409;-73
2023/03/09 03:58:38;;;;;;;16.80;12.80;;;;;;;4.21;78.07;98158.66;105643;1257;73680;-74
2023/03/09 04:01:07;;;;;;;14.40;10.90;;;;;;;4.22;78.11;98156.13;105925;1253;62390;-74
2023/03/09 04:03:35;;;;;;;15.10;11.40;;;;;;;4.28;77.84;98151.94;105748;1254;59666;-72
2023/03/09 04:06:04;;;;;;;17.30;12.50;;;;;;;4.24;77.69;98145.02;105657;1256;72370;-74
2023/03/09 04:08:34;;;;;;;14.90;11.60;;;;;;;4.18;78.02;98140.55;105896;1254;69576;-74
2023/03/09 04:11:07;;;;;;;15.00;11.30;;;;;;;4.15;78.37;98135.98;105779;1256;71456;-75
2023/03/09 04:13:37;;;;;;;18.00;12.00;;;;;;;4.21;77.95;98134.60;105729;1254;59731;-75
2023/03/09 04:16:05;;;;;;;14.30;11.30;;;;;;;4.24;77.75;98123.81;105811;1255;60571;-72
2023/03/09 04:18:33;;;;;;;18.80;13.20;;;;;;;4.21;78.05;98119.06;105821;1254;72103;-75
2023/03/09 04:21:02;;;;;;;16.00;12.30;;;;;;;4.18;77.92;98113.45;105966;1254;69415;-72
2023/03/09 04:23:31;;;;;;;16.10;10.60;;;;;;;4.17;78.06;98112.99;105772;1254;73688;-74
2023/03/09 04:26:03;;;;;;;18.10;12.80;;;;;;;4.26;77.87;98100.25;105716;1256;59569;-72
2023/03/09 04:28:54;;;;;;;15.80;11.70;;;;;;;4.30;77.55;98103.48;105961;1254;61470;-72
2023/03/09 04:31:22;;;;;;;15.80;12.50;;;;;;;4.29;77.53;98109.25;105961;1253;71969;-70
2023/03/09 04:33:51;;;;;;;17.30;12.20;;;;;;;4.29;77.92;98099.46;106005;1254;69292;-72
2023/03/09 04:36:20;;;;;;;19.00;11.90;;;;;;;4.36;77.38;98099.38;106088;1254;71920;-72
2023/03/09 04:38:50;;;;;;;17.60;12.30;;;;;;;4.44;77.38;98085.85;105870;1254;59672;-74
2023/03/09 04:41:19;;;;;;;18.40;12.20;;;;;;;4.41;77.32;98085.01;105952;1257;59727;-72
2023/03/09 04:43:54;;;;;;;18.90;12.80;;;;;;;4.36;77.57;98081.63;105857;1254;71846;-72
2023/03/09 04:46:22;;;;;;;14.80;11.40;;;;;;;4.35;77.59;98078.44;105892;1255;70266;-71
2023/03/09 04:48:54;;;;;;;16.90;11.50;;;;;;;4.42;77.66;98074.34;105948;1255;72949;-71
2023/03/09 04:51:23;;;;;;;15.00;11.30;;;;;;;4.49;77.45;98071.06;105950;1254;59611;-73
2023/03/09 04:53:53;;;;;;;15.40;11.90;;;;;;;4.48;77.37;98066.11;105788;1255;59833;-76
2023/03/09 04:56:24;;;;;;;15.50;11.70;;;;;;;4.46;77.61;98061.58;105845;1254;72172;-71
2023/03/09 04:58:57;;;;;;;13.80;10.90;;;;;;;4.46;78.13;98050.45;105996;1257;70236;-73
2023/03/09 05:01:28;;;;;;;16.10;11.50;;;;;;;4.57;78.05;98040.63;105858;1254;73005;-71
2023/03/09 05:03:59;;;;;;;16.70;12.70;;;;;;;4.62;77.97;98021.45;106104;1255;60422;-71
2023/03/09 05:06:30;;;;;;;16.00;11.50;;;;;;;4.61;78.45;98015.23;105716;1254;59693;-72
2023/03/09 05:08:59;;;;;;;16.90;13.00;;;;;;;4.60;78.56;98001.50;105820;1257;73887;-73
2023/03/09 05:11:31;;;;;;;16.00;12.50;;;;;;;4.66;78.65;97997.39;105915;1257;71830;-71
2023/03/09 05:14:00;;;;;;;17.30;14.10;;;;;;;4.78;78.60;98004.02;105988;1253;71983;-71
2023/03/09 05:16:30;;;;;;;21.50;15.50;;;;;;;4.80;78.50;98001.50;105875;1257;59647;-72
2023/03/09 05:18:58;;;;;;;17.40;13.40;;;;;;;4.81;78.92;97986.38;105808;1253;59818;-72
2023/03/09 05:21:33;;;;;;;19.50;14.90;;;;;;;4.82;78.80;97990.05;105689;1256;74193;-73
2023/03/09 05:24:05;;;;;;;15.30;12.00;;;;;;;4.87;78.61;97985.26;105937;1253;71553;-72
2023/03/09 05:26:33;;;;;;;15.60;11.50;;;;;;;5.00;78.62;97989.98;106446;1254;72682;-71
2023/03/09 05:29:02;;;;;;;14.80;12.10;;;;;;;5.04;78.36;97990.23;106506;1253;59622;-72
2023/03/09 05:31:32;;;;;;;13.90;11.20;;;;;;;5.03;78.52;97985.09;106370;1253;61206;-71
2023/03/09 05:34:04;;;;;;;15.50;12.40;;;;;;;5.02;78.54;97981.30;106283;1254;72028;-73
2023/03/09 05:36:33;;;;;;;15.70;11.10;;;;;;;5.03;78.66;97985.91;106345;1253;70307;-74
2023/03/09 05:39:13;;;;;;;14.50;10.80;;;;;;;5.14;78.42;97986.80;106290;1258;72666;-73
2023/03/09 05:41:41;;;;;;;13.10;11.20;;;;;;;5.16;78.23;97986.92;106385;1257;59645;-71
2023/03/09 05:44:20;;;;;;;15.40;11.20;;;;;;;5.12;78.45;97977.31;106479;1253;60233;-73
2023/03/09 05:46:48;;;;;;;13.70;10.70;;;;;;;5.08;78.58;97986.52;107396;1254;73005;-74
2023/03/09 05:49:17;;;;;;;14.50;10.80;;;;;;;5.14;78.71;97980.33;106377;1253;71309;-73
2023/03/09 05:51:45;;;;;;;13.70;11.40;;;;;;;5.25;78.46;97976.16;106491;1253;72229;-73
2023/03/09 05:54:16;;;;;;;14.80;11.20;;;;;;;5.29;78.00;97976.85;106341;1253;60506;-72
2023/03/09 05:56:45;;;;;;;14.00;11.00;;;;;;;5.28;78.08;97969.39;106288;1253;59602;-72
2023/03/09 05:59:15;;;;;;;14.00;11.10;;;;;;;5.27;78.23;97968.64;106462;1256;72627;-73
2023/03/09 06:01:44;;;;;;;14.20;11.00;;;;;;;5.29;78.06;97973.30;106628;1253;70127;-74
2023/03/09 06:04:17;;;;;;;14.40;10.40;;;;;;;5.42;77.96;97966.73;106664;1253;73385;-71
2023/03/09 06:06:50;;;;;;;13.20;11.30;;;;;;;5.47;77.72;97967.74;106308;1253;59646;-72
2023/03/09 06:09:20;;;;;;;14.40;10.70;;;;;;;5.45;77.74;97977.93;106320;1253;60557;-73
2023/03/09 06:11:52;;;;;;;14.80;10.70;;;;;;;5.46;77.76;97968.73;106564;1257;73507;-75
2023/03/09 06:14:21;;;;;;;14.70;10.50;;;;;;;5.58;77.73;97968.55;106582;1253;71385;-71
2023/03/09 06:16:49;;;;;;;13.70;9.90;;;;;;;5.68;77.17;97965.09;106308;1254;72888;-74
2023/03/09 06:19:18;;;;;;;14.90;10.60;;;;;;;5.70;77.10;97980.63;106521;1253;60498;-72
2023/03/09 06:21:46;;;;;;;16.80;12.00;;;;;;;5.71;76.97;97976.16;106737;1253;60554;-74
2023/03/09 06:24:15;;;;;;;13.30;10.70;;;;;;;5.76;77.03;97973.19;107211;1253;71312;-72
2023/03/09 06:26:44;;;;;;;12.70;10.30;;;;;;;5.89;76.72;97981.82;107321;1253;71361;-73
2023/03/09 06:29:13;;;;;;;13.20;10.60;;;;;;;5.94;76.26;97968.78;107392;1257;70851;-72
2023/03/09 06:31:44;;;;;;;16.20;11.90;;;;;;;5.94;76.28;97966.78;106765;1253;60575;-74
2023/03/09 06:34:13;;;;;;;16.90;11.10;;;;;;;5.94;76.21;97976.79;106733;1253;60575;-73
2023/03/09 06:36:47;;;;;;;13.40;10.70;;;;;;;6.00;76.10;97965.22;106799;1256;71778;-73
2023/03/09 06:39:15;;;;;;;13.80;11.10;;;;;;;6.15;75.92;97968.61;106885;1253;71630;-76
2023/03/09 06:41:43;;;;;;;16.80;11.30;;;;;;;6.19;75.38;97970.94;106916;1257;71374;-75
2023/03/09 06:44:18;;;;;;;12.70;11.00;;;;;;;6.19;75.55;97961.96;107238;1257;61895;-72
2023/03/09 06:46:47;;;;;;;14.40;11.50;;;;;;;6.19;75.23;97964.00;106711;1254;61508;-73
2023/03/09 06:49:16;;;;;;;15.60;10.50;;;;;;;6.26;75.09;97960.91;106921;1254;71430;-74
2023/03/09 06:51:46;;;;;;;15.30;11.70;;;;;;;6.37;74.77;97956.11;107112;1253;69621;-74
2023/03/09 06:54:16;;;;;;;14.50;10.60;;;;;;;6.38;74.69;97943.13;106742;1257;71695;-72
2023/03/09 06:56:52;;;;;;;16.70;11.90;;;;;;;6.38;74.78;97945.77;106604;1253;60598;-71
2023/03/09 06:59:20;;;;;;;14.50;11.50;;;;;;;6.38;74.73;97949.66;106581;1253;59581;-72
2023/03/09 07:01:49;;;;;;;14.70;11.30;;;;;;;6.42;74.78;97939.80;106666;1256;74187;-72
2023/03/09 07:04:17;;;;;;;18.50;12.70;;;;;;;6.55;74.33;97941.45;106642;1253;69179;-73
2023/03/09 07:06:47;;;;;;;15.50;11.40;;;;;;;6.59;73.94;97941.84;106500;1259;72258;-72
2023/03/09 07:09:15;;;;;;;11.70;10.50;;;;;;;6.61;73.81;97944.27;106995;1253;59353;-73
2023/03/09 07:11:43;;;;;;;14.30;11.00;;;;;;;6.65;73.67;97940.27;106627;1253;59736;-74
2023/03/09 07:14:12;;;;;;;13.90;10.30;;;;;;;6.72;73.56;97946.06;106638;1257;72598;-74
2023/03/09 07:16:42;;;;;;;13.30;10.30;;;;;;;6.90;73.29;97957.45;107308;1253;71714;-74
2023/03/09 07:19:14;;;;;;;13.30;10.50;;;;;;;7.03;72.68;97939.75;107562;1253;72636;-74
2023/03/09 07:21:42;;;;;;;14.70;10.90;;;;;;;7.11;72.44;97946.39;107093;1253;60351;-75
2023/03/09 07:24:10;;;;;;;16.10;11.50;;;;;;;7.18;72.29;97943.52;107156;1253;60480;-73
2023/03/09 07:26:39;;;;;;;15.10;11.40;;;;;;;7.27;71.79;97936.86;107142;1256;73911;-75
2023/03/09 07:29:13;;;;;;;15.20;12.00;;;;;;;7.37;71.50;97941.93;106929;1253;69106;-74
2023/03/09 07:31:41;;;;;;;13.70;11.50;;;;;;;7.46;71.31;97939.89;106820;1253;72611;-76
2023/03/09 07:34:11;;;;;;;13.60;10.80;;;;;;;7.56;70.99;97937.85;107013;1253;60436;-75
2023/03/09 07:36:39;;;;;;;16.60;11.70;;;;;;;7.68;70.67;97940.33;106899;1256;60428;-75
2023/03/09 07:39:07;;;;;;;14.20;11.40;;;;;;;7.90;69.85;97938.86;106918;1258;73524;-73
2023/03/09 07:41:35;;;;;;;14.40;11.00;;;;;;;8.02;69.66;97938.12;106946;1253;70846;-75
2023/03/09 07:44:04;;;;;;;15.90;11.20;;;;;;;8.10;69.01;97940.36;106988;1253;70588;-74
2023/03/09 07:46:32;;;;;;;14.60;11.50;;;;;;;8.16;69.14;97939.33;107356;1254;61171;-75
2023/03/09 07:49:00;;;;;;;16.00;11.70;;;;;;;8.22;68.43;97950.46;108856;1254;60313;-74
2023/03/09 07:51:31;;;;;;;17.90;10.80;;;;;;;8.27;68.51;97943.13;109182;1253;72203;-76
2023/03/09 07:54:00;;;;;;;16.10;10.60;;;;;;;8.34;68.43;97930.52;108573;1253;69273;-76
2023/03/09 07:56:28;;;;;;;15.70;11.20;;;;;;;8.41;68.01;97938.09;109414;1253;73848;-77
2023/03/09 07:58:56;;;;;;;16.70;11.30;;;;;;;8.46;67.73;97950.72;109394;1253;58297;-78
2023/03/09 08:01:27;;;;;;;13.00;11.30;;;;;;;8.48;67.57;97952.42;109459;1254;58341;-77
2023/03/09 08:03:55;;;;;;;18.10;13.90;;;;;;;8.50;67.76;97942.66;109499;1253;72354;-75
2023/03/09 08:06:23;;;;;;;17.00;12.70;;;;;;;8.52;67.62;97946.79;109336;1254;69416;-77
2023/03/09 08:08:52;;;;;;;15.90;10.50;;;;;;;8.55;67.41;97950.33;109368;1253;71329;-78
2023/03/09 08:11:20;;;;;;;14.30;11.30;;;;;;;8.56;67.35;97940.12;109322;1253;59131;-77
2023/03/09 08:13:50;;;;;;;14.40;10.90;;;;;;;8.59;67.10;97940.57;109403;1253;60067;-76
2023/03/09 08:16:20;;;;;;;17.00;11.30;;;;;;;8.67;67.03;97934.44;109329;1253;72977;-76
2023/03/09 08:18:54;;;;;;;15.00;10.50;;;;;;;8.76;66.98;97941.40;109530;1252;69072;-77
2023/03/09 08:21:22;;;;;;;14.00;10.40;;;;;;;8.90;66.89;97929.89;109516;1253;71542;-78
2023/03/09 08:23:50;;;;;;;13.10;10.00;;;;;;;9.05;66.55;97932.59;109412;1253;60051;-78
2023/03/09 08:26:20;;;;;;;14.40;9.20;;;;;;;9.21;66.01;97929.99;109426;1253;60331;-78
2023/03/09 08:28:53;;;;;;;;;;;;;;;9.35;65.06;97936.60;109320;1253;72535;-79
2023/03/09 08:31:29;;;;;;;12.40;8.60;;;;;;;9.45;64.67;97929.70;109491;1252;70317;-79
2023/03/09 08:33:58;;;;;;;11.10;9.80;;;;;;;9.57;64.87;97931.52;109373;1253;72686;-79
2023/03/09 08:36:26;;;;;;;11.00;8.50;;;;;;;9.73;64.45;97926.20;109405;1253;58823;-79
2023/03/09 08:38:55;;;;;;;12.40;9.10;;;;;;;9.90;63.91;97918.34;109346;1253;59187;-79
2023/03/09 08:41:23;;;;;;;12.10;8.50;;;;;;;10.06;63.82;97919.70;109338;1253;71813;-79
2023/03/09 08:43:56;;;;;;;13.20;9.00;;;;;;;10.19;63.10;97936.81;109319;1253;68155;-78
2023/03/09 08:46:25;;;;;;;11.60;8.60;;;;;;;10.27;62.85;97925.30;109168;1253;71580;-78
2023/03/09 08:49:00;;;;;;;11.40;8.20;;;;;;;10.35;63.02;97919.05;108340;1253;60328;-76
2023/03/09 08:51:29;;;;;;;13.50;8.80;;;;;;;10.45;62.65;97925.35;109470;1253;58523;-76
2023/03/09 08:53:59;;;;;;;12.60;8.30;;;;;;;10.56;62.84;97918.14;109507;1254;74121;-79
2023/03/09 08:56:29;;;;;;;11.50;8.80;;;;;;;10.75;62.32;97916.23;109518;1253;70003;-80
2023/03/09 08:59:01;;;;;;;11.30;8.30;;;;;;;11.00;62.29;97928.28;109493;1254;72098;-78
2023/03/09 09:01:30;;;;;;;10.00;7.60;;;;;;;11.18;60.98;97928.45;109446;1253;60017;-78
2023/03/09 09:04:04;;;;;;;9.70;7.10;;;;;;;11.25;60.81;97926.06;109305;1253;60309;-79
2023/03/09 09:06:37;;;;;;;12.90;9.20;;;;;;;11.30;60.76;97921.65;109437;1257;73909;-78
2023/03/09 09:09:11;;;;;;;12.10;8.30;;;;;;;11.35;60.83;97921.52;109405;1253;69199;-77
2023/03/09 09:11:43;;;;;;;10.90;6.90;;;;;;;11.39;60.40;97925.82;109305;1253;71358;-79
2023/03/09 09:14:14;;;;;;;9.80;7.00;;;;;;;11.39;60.29;97926.93;109353;1253;59133;-79
2023/03/09 09:16:43;;;;;;;10.60;5.90;;;;;;;11.33;59.98;97933.31;109506;1253;59856;-78
2023/03/09 09:19:12;;;;;;;7.80;6.60;;;;;;;11.22;60.25;97935.58;109368;1254;73772;-78
2023/03/09 09:21:45;;;;;;;14.60;8.20;;;;;;;11.05;60.51;97924.41;109392;1254;70449;-79
2023/03/09 09:24:14;;;;;;;15.60;8.80;;;;;;;11.04;60.88;97932.93;109340;1253;72662;-80
2023/03/09 09:26:45;;;;;;;10.60;8.10;;;;;;;10.97;60.99;97938.00;109504;1253;60378;-81
2023/03/09 09:29:14;;;;;;;9.40;7.40;;;;;;;10.91;61.17;97944.08;109491;1254;60148;-76
2023/03/09 09:31:45;;;;;;;11.00;7.50;;;;;;;10.81;61.37;97944.55;109495;1253;73874;-81
2023/03/09 09:34:16;;;;;;;11.10;8.50;;;;;;;10.73;61.55;97944.91;109452;1254;68617;-81
2023/03/09 09:36:45;;;;;;;12.30;8.60;;;;;;;10.66;61.74;97943.45;109477;1255;72684;-79
2023/03/09 09:39:14;;;;;;;16.20;9.60;;;;;;;10.61;61.96;97942.46;109499;1253;59650;-80
2023/03/09 09:41:43;;;;;;;9.60;7.10;;;;;;;10.56;61.94;97944.04;109452;1254;58585;-78
2023/03/09 09:44:33;;;;;;;9.70;7.10;;;;;;;10.52;62.05;97947.58;109424;1253;72791;-80
2023/03/09 09:47:03;;;;;;;14.20;7.20;;;;;;;10.49;62.42;97936.30;109326;1254;70415;-75
2023/03/09 09:49:37;;;;;;;9.00;6.80;;;;;;;10.50;62.59;97938.43;109340;1253;72137;-75
2023/03/09 09:52:15;;;;;;;;;;;;;;;10.56;62.74;97934.07;109446;1253;60328;-72
2023/03/09 09:54:48;;;;;;;10.40;8.20;;;;;;;10.65;62.30;97939.09;109470;1253;58011;-74
2023/03/09 09:57:27;;;;;;;10.20;7.40;;;;;;;10.79;62.13;97936.89;109194;1253;73850;-74
2023/03/09 10:00:06;;;;;;;10.60;7.60;;;;;;;11.01;61.45;97944.39;109294;1253;69976;-74
2023/03/09 10:02:56;;;;;;;13.60;8.70;;;;;;;11.15;61.23;97935.14;109395;1253;71023;-76
2023/03/09 10:05:42;;;;;;;18.00;8.80;;;;;;;11.25;61.03;97927.33;109292;1253;59295;-78
2023/03/09 10:08:29;;;;;;;9.50;7.60;;;;;;;11.32;60.67;97926.33;109437;1253;60053;-78
2023/03/09 10:11:12;;;;;;;13.50;7.80;;;;;;;11.34;60.68;97918.18;109356;1253;72881;-77
2023/03/09 10:13:47;;;;;;;10.70;6.40;;;;;;;11.32;60.24;97925.63;109303;1253;70447;-78
2023/03/09 10:16:22;;;;;;;10.60;6.90;;;;;;;11.27;60.49;97914.31;109185;1254;71011;-77
2023/03/09 10:18:57;;;;;;;11.80;7.40;;;;;;;11.24;60.84;97907.67;109350;1253;60011;-78
2023/03/09 10:21:52;;;;;;;10.90;7.40;;;;;;;11.31;60.80;97911.45;109321;1254;60420;-79
2023/03/09 10:24:21;;;;;;;8.60;6.70;;;;;;;11.34;60.55;97906.36;109241;1253;73047;-80
2023/03/09 10:27:01;;;;;;;9.80;7.50;;;;;;;11.38;60.69;97896.02;109203;1253;69395;-79
2023/03/09 10:29:54;;;;;;;8.90;6.80;;;;;;;11.47;60.55;97899.79;109228;1253;72683;-78
2023/03/09 10:33:00;;;;;;;12.10;7.70;;;;;;;11.59;60.13;97886.17;109178;1253;59554;-76
2023/03/09 10:35:43;;;;;;;10.10;7.70;;;;;;;11.69;59.90;97877.96;109529;1253;60677;-77
2023/03/09 10:38:16;;;;;;;8.50;6.90;;;;;;;11.77;59.67;97877.88;109395;1253;73698;-77
2023/03/09 10:40:46;;;;;;;12.90;7.80;;;;;;;11.82;59.47;97880.52;109388;1253;69817;-79
2023/03/09 10:43:26;;;;;;;10.60;6.70;;;;;;;11.89;59.60;97879.35;109372;1253;72443;-77
2023/03/09 10:45:55;;;;;;;7.80;6.30;;;;;;;11.98;59.24;97889.95;109429;1253;60059;-78
2023/03/09 10:48:28;;;;;;;10.40;7.10;;;;;;;12.00;59.17;97888.84;109487;1253;60107;-78
2023/03/09 10:51:05;;;;;;;8.20;6.50;;;;;;;11.97;59.33;97885.02;109387;1253;72554;-76
2023/03/09 10:53:49;;;;;;;9.70;7.00;;;;;;;11.90;59.43;97884.34;109264;1253;68151;-77
2023/03/09 10:56:26;;;;;;;8.90;7.00;;;;;;;11.80;59.72;97880.19;109183;1253;72589;-77
2023/03/09 10:59:06;;;;;;;8.70;6.30;;;;;;;11.71;59.99;97877.05;109391;1253;58432;-77
2023/03/09 11:01:43;;;;;;;13.60;8.90;;;;;;;11.65;59.97;97874.73;109406;1253;59373;-77
2023/03/09 11:04:24;;;;;;;10.80;6.40;;;;;;;11.60;59.76;97880.89;109355;1253;73542;-77
2023/03/09 11:06:57;;;;;;;11.50;6.90;;;;;;;11.57;59.71;97869.00;109300;1253;69409;-76
2023/03/09 11:09:31;;;;;;;6.70;5.80;;;;;;;11.60;59.81;97859.71;107371;1253;72660;-77
2023/03/09 11:12:15;;;;;;;12.20;6.70;;;;;;;11.63;59.70;97857.62;106295;1254;64231;-75
2023/03/09 11:14:56;;;;;;;9.70;6.90;;;;;;;11.65;59.98;97856.33;106096;1256;61458;-78
2023/03/09 11:17:29;;;;;;;9.20;6.90;;;;;;;11.68;59.66;97858.29;105957;1255;73506;-77
2023/03/09 11:20:23;;;;;;;12.10;8.90;;;;;;;11.75;59.77;97848.96;105949;1258;69323;-76
2023/03/09 11:23:02;;;;;;;14.70;7.80;;;;;;;11.89;59.30;97854.54;106316;1255;71926;-78
2023/03/09 11:25:34;;;;;;;14.90;8.30;;;;;;;12.02;59.13;97845.23;105991;1258;60452;-77
2023/03/09 11:28:16;;;;;;;9.10;6.70;;;;;;;12.15;59.09;97843.05;106526;1258;60524;-80
2023/03/09 11:30:45;;;;;;;11.50;6.90;;;;;;;12.26;58.80;97847.77;106414;1253;71424;-78
2023/03/09 11:33:17;;;;;;;11.30;6.00;;;;;;;12.31;58.40;97847.09;106377;1259;69485;-80
2023/03/09 11:35:48;;;;;;;8.70;7.00;;;;;;;12.30;58.21;97837.73;106091;1260;73179;-80
2023/03/09 11:38:19;;;;;;;12.10;8.00;;;;;;;12.28;58.14;97838.98;106197;1255;60438;-80
2023/03/09 11:40:49;;;;;;;9.70;7.30;;;;;;;12.28;58.29;97828.16;105874;1253;61380;-77
2023/03/09 11:43:27;;;;;;;12.30;8.40;;;;;;;12.39;58.18;97825.75;105885;1253;74891;-77